Terminal Aerodrome Forecast
Issued by NWS Louisville, KY

Home | Current Version | Previous Version | Text Only | Print | Product List | Glossary On
Versions: 1 2 3 4 5 6 7 8 9 10 11 12 13 14 15 16 17 18 19 20 21 22 23 24
616
FTUS43 KLMK 190520
TAFBWG
TAF
KBWG 190520Z 1906/2006 VRB04KT P6SM BKN070
     FM190700 VRB02KT 4SM BR BKN025
      TEMPO 1908/1912 2SM BR BKN015
     FM191500 VRB03KT P6SM BKN035=

USA.gov is the U.S. government's official web portal to all federal, state and local government web resources and services.